sensor_id;sensor_type;location;lat;lon;timestamp;pressure;altitude;pressure_sealevel;temperature;humidity
20971;BME280;10644;48.834;10.088;2024-01-27T00:02:17;98275.88;;;7.46;59.48
20971;BME280;10644;48.834;10.088;2024-01-27T00:04:42;98275.91;;;7.43;59.63
20971;BME280;10644;48.834;10.088;2024-01-27T00:07:08;98277.44;;;7.53;59.67
20971;BME280;10644;48.834;10.088;2024-01-27T00:09:33;98277.13;;;7.71;59.53
20971;BME280;10644;48.834;10.088;2024-01-27T00:11:59;98269.28;;;7.82;59.24
20971;BME280;10644;48.834;10.088;2024-01-27T00:14:24;98268.25;;;7.93;59.04
20971;BME280;10644;48.834;10.088;2024-01-27T00:16:49;98279.91;;;8.06;58.85
20971;BME280;10644;48.834;10.088;2024-01-27T00:19:15;98273.84;;;8.13;58.24
20971;BME280;10644;48.834;10.088;2024-01-27T00:21:41;98280.53;;;8.22;58.27
20971;BME280;10644;48.834;10.088;2024-01-27T00:24:06;98272.06;;;8.17;57.54
20971;BME280;10644;48.834;10.088;2024-01-27T00:26:31;98280.13;;;7.94;57.80
20971;BME280;10644;48.834;10.088;2024-01-27T00:28:59;98287.22;;;7.77;58.50
20971;BME280;10644;48.834;10.088;2024-01-27T00:31:24;98279.75;;;7.68;58.51
20971;BME280;10644;48.834;10.088;2024-01-27T00:33:50;98297.66;;;7.65;59.04
20971;BME280;10644;48.834;10.088;2024-01-27T00:36:17;98285.59;;;7.73;58.86
20971;BME280;10644;48.834;10.088;2024-01-27T00:38:44;98288.88;;;7.81;58.35
20971;BME280;10644;48.834;10.088;2024-01-27T00:41:09;98290.44;;;7.88;58.09
20971;BME280;10644;48.834;10.088;2024-01-27T00:43:37;98300.53;;;7.94;57.97
20971;BME280;10644;48.834;10.088;2024-01-27T00:46:05;98304.63;;;8.04;58.12
20971;BME280;10644;48.834;10.088;2024-01-27T00:48:33;98305.38;;;8.09;57.99
20971;BME280;10644;48.834;10.088;2024-01-27T00:50:58;98311.31;;;8.10;58.22
20971;BME280;10644;48.834;10.088;2024-01-27T00:53:23;98298.59;;;8.08;57.51
20971;BME280;10644;48.834;10.088;2024-01-27T00:55:49;98304.50;;;8.10;57.76
20971;BME280;10644;48.834;10.088;2024-01-27T00:58:15;98313.91;;;8.08;57.91
20971;BME280;10644;48.834;10.088;2024-01-27T01:00:41;98309.03;;;7.96;57.94
20971;BME280;10644;48.834;10.088;2024-01-27T01:03:06;98314.31;;;7.84;58.25
20971;BME280;10644;48.834;10.088;2024-01-27T01:05:31;98321.38;;;7.70;58.24
20971;BME280;10644;48.834;10.088;2024-01-27T01:07:57;98324.13;;;7.58;58.81
20971;BME280;10644;48.834;10.088;2024-01-27T01:10:22;98316.06;;;7.29;59.02
20971;BME280;10644;48.834;10.088;2024-01-27T01:12:48;98320.22;;;7.36;59.73
20971;BME280;10644;48.834;10.088;2024-01-27T01:15:13;98321.66;;;7.52;59.47
20971;BME280;10644;48.834;10.088;2024-01-27T01:17:38;98331.84;;;7.52;59.35
20971;BME280;10644;48.834;10.088;2024-01-27T01:20:07;98309.69;;;7.56;59.55
20971;BME280;10644;48.834;10.088;2024-01-27T01:22:32;98329.00;;;7.72;59.50
20971;BME280;10644;48.834;10.088;2024-01-27T01:24:57;98324.50;;;7.84;58.98
20971;BME280;10644;48.834;10.088;2024-01-27T01:27:23;98323.50;;;7.93;59.11
20971;BME280;10644;48.834;10.088;2024-01-27T01:29:51;98331.03;;;8.02;58.68
20971;BME280;10644;48.834;10.088;2024-01-27T01:32:16;98323.25;;;8.08;59.01
20971;BME280;10644;48.834;10.088;2024-01-27T01:34:41;98319.72;;;8.15;58.88
20971;BME280;10644;48.834;10.088;2024-01-27T01:37:07;98323.81;;;8.26;58.87
20971;BME280;10644;48.834;10.088;2024-01-27T01:39:32;98316.94;;;8.28;58.27
20971;BME280;10644;48.834;10.088;2024-01-27T01:41:57;98316.84;;;8.34;58.19
20971;BME280;10644;48.834;10.088;2024-01-27T01:44:30;98323.63;;;8.35;57.98
20971;BME280;10644;48.834;10.088;2024-01-27T01:46:56;98323.69;;;8.32;58.22
20971;BME280;10644;48.834;10.088;2024-01-27T01:49:21;98318.75;;;8.23;57.93
20971;BME280;10644;48.834;10.088;2024-01-27T01:51:47;98334.13;;;8.20;58.20
20971;BME280;10644;48.834;10.088;2024-01-27T01:54:13;98336.09;;;8.03;58.29
20971;BME280;10644;48.834;10.088;2024-01-27T01:56:39;98346.41;;;7.97;58.18
20971;BME280;10644;48.834;10.088;2024-01-27T01:59:04;98340.59;;;7.89;58.69
20971;BME280;10644;48.834;10.088;2024-01-27T02:01:30;98349.28;;;7.78;59.14
20971;BME280;10644;48.834;10.088;2024-01-27T02:03:56;98349.50;;;7.66;59.48
20971;BME280;10644;48.834;10.088;2024-01-27T02:06:22;98354.41;;;7.78;59.79
20971;BME280;10644;48.834;10.088;2024-01-27T02:08:50;98344.91;;;7.86;59.79
20971;BME280;10644;48.834;10.088;2024-01-27T02:11:16;98350.56;;;8.01;59.43
20971;BME280;10644;48.834;10.088;2024-01-27T02:13:42;98354.72;;;8.08;59.28
20971;BME280;10644;48.834;10.088;2024-01-27T02:16:08;98360.59;;;8.13;59.25
20971;BME280;10644;48.834;10.088;2024-01-27T02:18:33;98360.50;;;8.19;59.48
20971;BME280;10644;48.834;10.088;2024-01-27T02:20:58;98369.78;;;8.23;59.18
20971;BME280;10644;48.834;10.088;2024-01-27T02:23:24;98379.97;;;8.26;58.81
20971;BME280;10644;48.834;10.088;2024-01-27T02:25:49;98370.56;;;8.28;58.99
20971;BME280;10644;48.834;10.088;2024-01-27T02:28:16;98365.38;;;8.33;59.03
20971;BME280;10644;48.834;10.088;2024-01-27T02:30:41;98386.47;;;8.42;58.95
20971;BME280;10644;48.834;10.088;2024-01-27T02:33:07;98381.38;;;8.42;58.80
20971;BME280;10644;48.834;10.088;2024-01-27T02:35:32;98391.47;;;8.48;58.64
20971;BME280;10644;48.834;10.088;2024-01-27T02:38:00;98394.78;;;8.53;58.14
20971;BME280;10644;48.834;10.088;2024-01-27T02:40:26;98393.00;;;8.58;58.17
20971;BME280;10644;48.834;10.088;2024-01-27T02:42:51;98403.13;;;8.61;58.22
20971;BME280;10644;48.834;10.088;2024-01-27T02:45:17;98405.66;;;8.64;58.59
20971;BME280;10644;48.834;10.088;2024-01-27T02:47:42;98406.59;;;8.57;58.31
20971;BME280;10644;48.834;10.088;2024-01-27T02:50:11;98406.59;;;8.57;58.77
20971;BME280;10644;48.834;10.088;2024-01-27T02:52:39;98415.09;;;8.59;58.35
20971;BME280;10644;48.834;10.088;2024-01-27T02:55:05;98422.66;;;8.64;58.79
20971;BME280;10644;48.834;10.088;2024-01-27T02:57:30;98418.38;;;8.66;58.41
20971;BME280;10644;48.834;10.088;2024-01-27T02:59:56;98427.75;;;8.67;58.21
20971;BME280;10644;48.834;10.088;2024-01-27T03:02:21;98427.00;;;8.60;58.12
20971;BME280;10644;48.834;10.088;2024-01-27T03:04:47;98427.88;;;8.59;58.18
20971;BME280;10644;48.834;10.088;2024-01-27T03:07:12;98438.84;;;8.64;58.23
20971;BME280;10644;48.834;10.088;2024-01-27T03:09:37;98430.34;;;8.62;57.66
20971;BME280;10644;48.834;10.088;2024-01-27T03:12:03;98433.03;;;8.55;57.73
20971;BME280;10644;48.834;10.088;2024-01-27T03:14:28;98438.44;;;8.40;58.57
20971;BME280;10644;48.834;10.088;2024-01-27T03:16:54;98431.31;;;8.05;59.08
20971;BME280;10644;48.834;10.088;2024-01-27T03:19:19;98437.47;;;7.92;59.70
20971;BME280;10644;48.834;10.088;2024-01-27T03:21:45;98437.59;;;7.85;59.88
20971;BME280;10644;48.834;10.088;2024-01-27T03:24:10;98430.81;;;7.82;59.61
20971;BME280;10644;48.834;10.088;2024-01-27T03:26:36;98436.97;;;7.69;60.21
20971;BME280;10644;48.834;10.088;2024-01-27T03:29:01;98421.63;;;7.72;60.06
20971;BME280;10644;48.834;10.088;2024-01-27T03:31:30;98433.38;;;7.82;59.71
20971;BME280;10644;48.834;10.088;2024-01-27T03:33:57;98428.16;;;7.91;60.08
20971;BME280;10644;48.834;10.088;2024-01-27T03:36:23;98433.28;;;7.88;59.81
20971;BME280;10644;48.834;10.088;2024-01-27T03:38:49;98433.28;;;7.88;59.79
20971;BME280;10644;48.834;10.088;2024-01-27T03:41:14;98433.34;;;7.85;59.73
20971;BME280;10644;48.834;10.088;2024-01-27T03:43:39;98431.53;;;7.92;59.72
20971;BME280;10644;48.834;10.088;2024-01-27T03:46:04;98438.25;;;7.97;59.13
20971;BME280;10644;48.834;10.088;2024-01-27T03:48:30;98432.31;;;7.95;59.28
20971;BME280;10644;48.834;10.088;2024-01-27T03:50:55;98434.75;;;8.01;59.11
20971;BME280;10644;48.834;10.088;2024-01-27T03:53:21;98432.34;;;7.94;58.96
20971;BME280;10644;48.834;10.088;2024-01-27T03:55:46;98430.69;;;7.91;59.29
20971;BME280;10644;48.834;10.088;2024-01-27T03:58:12;98423.16;;;7.82;59.82
20971;BME280;10644;48.834;10.088;2024-01-27T04:00:37;98429.97;;;7.82;59.72
20971;BME280;10644;48.834;10.088;2024-01-27T04:03:03;98431.03;;;7.67;59.88
20971;BME280;10644;48.834;10.088;2024-01-27T04:05:29;98437.19;;;7.54;60.02
20971;BME280;10644;48.834;10.088;2024-01-27T04:07:55;98432.16;;;7.51;60.75
20971;BME280;10644;48.834;10.088;2024-01-27T04:10:22;98425.47;;;7.41;60.01
20971;BME280;10644;48.834;10.088;2024-01-27T04:12:47;98431.25;;;7.54;60.36
20971;BME280;10644;48.834;10.088;2024-01-27T04:15:13;98438.94;;;7.49;60.42
20971;BME280;10644;48.834;10.088;2024-01-27T04:17:39;98434.06;;;7.34;60.52
20971;BME280;10644;48.834;10.088;2024-01-27T04:20:05;98427.41;;;7.24;60.73
20971;BME280;10644;48.834;10.088;2024-01-27T04:22:32;98442.63;;;7.30;60.53
20971;BME280;10644;48.834;10.088;2024-01-27T04:24:57;98434.16;;;7.27;60.96
20971;BME280;10644;48.834;10.088;2024-01-27T04:27:23;98445.88;;;7.41;60.26
20971;BME280;10644;48.834;10.088;2024-01-27T04:29:48;98438.94;;;7.52;59.97
20971;BME280;10644;48.834;10.088;2024-01-27T04:32:16;98446.31;;;7.69;59.67
20971;BME280;10644;48.834;10.088;2024-01-27T04:34:41;98444.63;;;7.71;58.93
20971;BME280;10644;48.834;10.088;2024-01-27T04:37:06;98449.16;;;7.49;59.40
20971;BME280;10644;48.834;10.088;2024-01-27T04:39:32;98446.59;;;7.49;59.50
20971;BME280;10644;48.834;10.088;2024-01-27T04:41:57;98451.00;;;7.38;59.60
20971;BME280;10644;48.834;10.088;2024-01-27T04:44:22;98446.91;;;7.27;60.14
20971;BME280;10644;48.834;10.088;2024-01-27T04:46:48;98464.59;;;7.37;59.88
20971;BME280;10644;48.834;10.088;2024-01-27T04:49:14;98462.72;;;7.51;59.26
20971;BME280;10644;48.834;10.088;2024-01-27T04:51:40;98448.25;;;7.52;59.19
20971;BME280;10644;48.834;10.088;2024-01-27T04:54:05;98465.97;;;7.62;59.40
20971;BME280;10644;48.834;10.088;2024-01-27T04:56:30;98463.44;;;7.62;59.02
20971;BME280;10644;48.834;10.088;2024-01-27T04:58:55;98450.69;;;7.62;59.08
20971;BME280;10644;48.834;10.088;2024-01-27T05:01:23;98467.00;;;7.48;59.27
20971;BME280;10644;48.834;10.088;2024-01-27T05:03:48;98467.84;;;7.51;59.70
20971;BME280;10644;48.834;10.088;2024-01-27T05:06:14;98464.34;;;7.55;59.10
20971;BME280;10644;48.834;10.088;2024-01-27T05:08:39;98472.78;;;7.60;58.64
20971;BME280;10644;48.834;10.088;2024-01-27T05:11:05;98468.41;;;7.70;58.74
20971;BME280;10644;48.834;10.088;2024-01-27T05:13:32;98485.31;;;7.77;58.76
20971;BME280;10644;48.834;10.088;2024-01-27T05:15:58;98476.72;;;7.82;58.94
20971;BME280;10644;48.834;10.088;2024-01-27T05:18:24;98477.50;;;7.87;58.28
20971;BME280;10644;48.834;10.088;2024-01-27T05:20:49;98485.09;;;7.92;58.02
20971;BME280;10644;48.834;10.088;2024-01-27T05:23:17;98479.09;;;7.94;58.07
20971;BME280;10644;48.834;10.088;2024-01-27T05:25:42;98482.44;;;7.99;57.87
20971;BME280;10644;48.834;10.088;2024-01-27T05:28:07;98475.56;;;8.04;58.27
20971;BME280;10644;48.834;10.088;2024-01-27T05:30:33;98472.13;;;8.05;57.89
20971;BME280;10644;48.834;10.088;2024-01-27T05:32:58;98462.81;;;8.04;57.83
20971;BME280;10644;48.834;10.088;2024-01-27T05:35:23;98472.34;;;7.92;57.66
20971;BME280;10644;48.834;10.088;2024-01-27T05:37:49;98467.31;;;7.87;58.05
20971;BME280;10644;48.834;10.088;2024-01-27T05:40:15;98474.06;;;7.91;58.07
20971;BME280;10644;48.834;10.088;2024-01-27T05:42:41;98480.78;;;7.95;58.10
20971;BME280;10644;48.834;10.088;2024-01-27T05:45:08;98475.69;;;7.95;58.34
20971;BME280;10644;48.834;10.088;2024-01-27T05:47:35;98491.75;;;8.02;58.55
20971;BME280;10644;48.834;10.088;2024-01-27T05:50:00;98493.41;;;8.06;57.85
20971;BME280;10644;48.834;10.088;2024-01-27T05:52:26;98492.53;;;8.05;57.96
20971;BME280;10644;48.834;10.088;2024-01-27T05:54:52;98501.94;;;8.05;57.78
20971;BME280;10644;48.834;10.088;2024-01-27T05:57:17;98500.25;;;8.02;58.56
20971;BME280;10644;48.834;10.088;2024-01-27T05:59:43;98494.22;;;8.06;57.79
20971;BME280;10644;48.834;10.088;2024-01-27T06:02:08;98510.47;;;8.01;58.54
20971;BME280;10644;48.834;10.088;2024-01-27T06:04:33;98509.63;;;8.00;58.29
20971;BME280;10644;48.834;10.088;2024-01-27T06:06:59;98515.53;;;8.04;58.20
20971;BME280;10644;48.834;10.088;2024-01-27T06:09:25;98509.59;;;8.03;58.10
20971;BME280;10644;48.834;10.088;2024-01-27T06:11:50;98513.81;;;8.07;57.86
20971;BME280;10644;48.834;10.088;2024-01-27T06:14:16;98521.38;;;8.10;58.27
20971;BME280;10644;48.834;10.088;2024-01-27T06:16:41;98503.50;;;8.13;57.87
20971;BME280;10644;48.834;10.088;2024-01-27T06:19:06;98507.72;;;8.14;57.75
20971;BME280;10644;48.834;10.088;2024-01-27T06:21:32;98513.81;;;8.07;58.38
20971;BME280;10644;48.834;10.088;2024-01-27T06:23:57;98522.38;;;8.02;57.49
20971;BME280;10644;48.834;10.088;2024-01-27T06:26:23;98511.38;;;7.98;58.21
20971;BME280;10644;48.834;10.088;2024-01-27T06:28:48;98513.06;;;7.98;57.36
20971;BME280;10644;48.834;10.088;2024-01-27T06:31:13;98503.88;;;7.88;57.72
20971;BME280;10644;48.834;10.088;2024-01-27T06:33:40;98518.25;;;7.90;58.08
20971;BME280;10644;48.834;10.088;2024-01-27T06:36:06;98530.19;;;7.91;57.74
20971;BME280;10644;48.834;10.088;2024-01-27T06:38:33;98524.13;;;7.97;57.54
20971;BME280;10644;48.834;10.088;2024-01-27T06:40:58;98526.69;;;7.95;57.45
20971;BME280;10644;48.834;10.088;2024-01-27T06:43:24;98528.41;;;7.96;57.68
20971;BME280;10644;48.834;10.088;2024-01-27T06:45:49;98536.09;;;7.95;57.20
20971;BME280;10644;48.834;10.088;2024-01-27T06:48:14;98530.13;;;7.94;57.48
20971;BME280;10644;48.834;10.088;2024-01-27T06:50:40;98531.81;;;7.95;57.36
20971;BME280;10644;48.834;10.088;2024-01-27T06:53:05;98523.38;;;7.90;57.27
20971;BME280;10644;48.834;10.088;2024-01-27T06:55:35;98533.56;;;7.90;57.24
20971;BME280;10644;48.834;10.088;2024-01-27T06:58:03;98533.63;;;7.87;57.56
20971;BME280;10644;48.834;10.088;2024-01-27T07:00:28;98528.47;;;7.90;57.48
20971;BME280;10644;48.834;10.088;2024-01-27T07:02:53;98540.38;;;7.91;57.29
20971;BME280;10644;48.834;10.088;2024-01-27T07:05:20;98535.31;;;7.88;57.65
20971;BME280;10644;48.834;10.088;2024-01-27T07:07:46;98541.38;;;7.81;57.38
20971;BME280;10644;48.834;10.088;2024-01-27T07:10:11;98542.41;;;7.65;57.60
20971;BME280;10644;48.834;10.088;2024-01-27T07:12:37;98533.91;;;7.66;57.68
20971;BME280;10644;48.834;10.088;2024-01-27T07:15:02;98532.38;;;7.53;57.54
20971;BME280;10644;48.834;10.088;2024-01-27T07:17:27;98534.44;;;7.21;58.27
20971;BME280;10644;48.834;10.088;2024-01-27T07:19:53;98540.38;;;7.23;58.23
20971;BME280;10644;48.834;10.088;2024-01-27T07:22:19;98543.91;;;7.12;58.34
20971;BME280;10644;48.834;10.088;2024-01-27T07:24:44;98543.03;;;7.11;58.39
20971;BME280;10644;48.834;10.088;2024-01-27T07:27:12;98550.66;;;7.13;58.15
20971;BME280;10644;48.834;10.088;2024-01-27T07:29:38;98544.63;;;7.21;57.90
20971;BME280;10644;48.834;10.088;2024-01-27T07:32:04;98558.09;;;7.32;58.07
20971;BME280;10644;48.834;10.088;2024-01-27T07:34:29;98558.97;;;7.31;57.78
20971;BME280;10644;48.834;10.088;2024-01-27T07:36:54;98560.03;;;7.12;58.42
20971;BME280;10644;48.834;10.088;2024-01-27T07:39:20;98558.25;;;7.20;58.09
20971;BME280;10644;48.834;10.088;2024-01-27T07:41:45;98563.31;;;7.23;58.54
20971;BME280;10644;48.834;10.088;2024-01-27T07:44:14;98567.53;;;7.26;57.99
20971;BME280;10644;48.834;10.088;2024-01-27T07:46:40;98553.13;;;7.23;58.43
20971;BME280;10644;48.834;10.088;2024-01-27T07:49:07;98555.94;;;6.96;58.85
20971;BME280;10644;48.834;10.088;2024-01-27T07:51:35;98551.66;;;7.01;58.88
20971;BME280;10644;48.834;10.088;2024-01-27T07:54:02;98560.06;;;7.09;58.51
20971;BME280;10644;48.834;10.088;2024-01-27T07:56:28;98555.75;;;7.17;58.66
20971;BME280;10644;48.834;10.088;2024-01-27T07:58:53;98553.16;;;7.20;58.34
20971;BME280;10644;48.834;10.088;2024-01-27T08:01:19;98560.72;;;7.28;58.33
20971;BME280;10644;48.834;10.088;2024-01-27T08:03:47;98558.16;;;7.29;58.46
20971;BME280;10644;48.834;10.088;2024-01-27T08:06:17;98558.09;;;7.32;58.07
20971;BME280;10644;48.834;10.088;2024-01-27T08:08:47;98558.88;;;7.39;58.30
20971;BME280;10644;48.834;10.088;2024-01-27T08:11:14;98569.88;;;7.45;58.25
20971;BME280;10644;48.834;10.088;2024-01-27T08:13:40;98563.03;;;7.47;58.46
20971;BME280;10644;48.834;10.088;2024-01-27T08:16:06;98571.47;;;7.52;58.17
20971;BME280;10644;48.834;10.088;2024-01-27T08:18:34;98573.97;;;7.58;58.15
20971;BME280;10644;48.834;10.088;2024-01-27T08:20:59;98560.50;;;7.47;58.37
20971;BME280;10644;48.834;10.088;2024-01-27T08:23:25;98567.19;;;7.54;58.54
20971;BME280;10644;48.834;10.088;2024-01-27T08:25:50;98563.19;;;7.35;58.25
20971;BME280;10644;48.834;10.088;2024-01-27T08:28:18;98568.28;;;7.32;59.06
20971;BME280;10644;48.834;10.088;2024-01-27T08:30:43;98557.94;;;7.47;59.01
20971;BME280;10644;48.834;10.088;2024-01-27T08:33:08;98552.69;;;7.59;58.70
20971;BME280;10644;48.834;10.088;2024-01-27T08:35:34;98559.31;;;7.72;58.46
20971;BME280;10644;48.834;10.088;2024-01-27T08:37:59;98555.78;;;7.85;58.69
20971;BME280;10644;48.834;10.088;2024-01-27T08:40:24;98558.66;;;7.58;59.05
20971;BME280;10644;48.834;10.088;2024-01-27T08:42:50;98556.69;;;7.80;59.17
20971;BME280;10644;48.834;10.088;2024-01-27T08:45:18;98547.94;;;7.97;58.94
20971;BME280;10644;48.834;10.088;2024-01-27T08:47:43;98543.72;;;7.95;57.98
20971;BME280;10644;48.834;10.088;2024-01-27T08:50:09;98552.91;;;8.08;58.49
20971;BME280;10644;48.834;10.088;2024-01-27T08:52:36;98556.16;;;8.20;58.37
20971;BME280;10644;48.834;10.088;2024-01-27T08:55:01;98554.34;;;8.27;58.18
20971;BME280;10644;48.834;10.088;2024-01-27T08:57:26;98551.91;;;8.19;57.48
20971;BME280;10644;48.834;10.088;2024-01-27T08:59:54;98553.53;;;8.25;57.96
20971;BME280;10644;48.834;10.088;2024-01-27T09:02:19;98547.38;;;8.38;58.33
20971;BME280;10644;48.834;10.088;2024-01-27T09:04:45;98554.59;;;8.66;58.17
20971;BME280;10644;48.834;10.088;2024-01-27T09:07:11;98535.63;;;8.79;57.57
20971;BME280;10644;48.834;10.088;2024-01-27T09:09:36;98533.50;;;9.02;57.39
20971;BME280;10644;48.834;10.088;2024-01-27T09:12:03;98529.75;;;9.21;57.04
20971;BME280;10644;48.834;10.088;2024-01-27T09:14:29;98535.44;;;9.35;56.44
20971;BME280;10644;48.834;10.088;2024-01-27T09:16:54;98539.25;;;9.57;56.56
20971;BME280;10644;48.834;10.088;2024-01-27T09:19:19;98538.09;;;9.73;56.40
20971;BME280;10644;48.834;10.088;2024-01-27T09:21:45;98545.44;;;9.88;55.86
20971;BME280;10644;48.834;10.088;2024-01-27T09:24:10;98542.53;;;10.03;55.62
20971;BME280;10644;48.834;10.088;2024-01-27T09:26:35;98541.38;;;10.18;55.00
20971;BME280;10644;48.834;10.088;2024-01-27T09:29:01;98541.94;;;10.32;55.20
20971;BME280;10644;48.834;10.088;2024-01-27T09:31:26;98539.06;;;10.45;54.76
20971;BME280;10644;48.834;10.088;2024-01-27T09:33:52;98542.13;;;10.59;54.04
20971;BME280;10644;48.834;10.088;2024-01-27T09:36:21;98550.38;;;10.70;54.02
20971;BME280;10644;48.834;10.088;2024-01-27T09:38:46;98550.94;;;10.83;53.76
20971;BME280;10644;48.834;10.088;2024-01-27T09:41:15;98553.28;;;10.92;53.49
20971;BME280;10644;48.834;10.088;2024-01-27T09:43:45;98542.75;;;11.02;53.12
20971;BME280;10644;48.834;10.088;2024-01-27T09:46:12;98546.03;;;11.07;52.98
20971;BME280;10644;48.834;10.088;2024-01-27T09:48:38;98538.81;;;11.21;51.29
20971;BME280;10644;48.834;10.088;2024-01-27T09:51:04;98545.31;;;11.34;51.96
20971;BME280;10644;48.834;10.088;2024-01-27T09:53:30;98542.38;;;11.48;51.55
20971;BME280;10644;48.834;10.088;2024-01-27T09:55:57;98549.63;;;11.64;51.18
20971;BME280;10644;48.834;10.088;2024-01-27T09:58:28;98544.06;;;11.79;50.90
20971;BME280;10644;48.834;10.088;2024-01-27T10:00:56;98545.06;;;11.74;48.05
20971;BME280;10644;48.834;10.088;2024-01-27T10:03:23;98540.50;;;11.22;48.55
20971;BME280;10644;48.834;10.088;2024-01-27T10:05:51;98554.28;;;11.18;47.84
20971;BME280;10644;48.834;10.088;2024-01-27T10:08:17;98554.88;;;11.28;48.68
20971;BME280;10644;48.834;10.088;2024-01-27T10:10:42;98563.41;;;11.60;49.36
20971;BME280;10644;48.834;10.088;2024-01-27T10:13:10;98559.13;;;11.91;49.16
20971;BME280;10644;48.834;10.088;2024-01-27T10:15:39;98557.41;;;12.19;48.97
20971;BME280;10644;48.834;10.088;2024-01-27T10:18:07;98551.44;;;12.46;48.41
20971;BME280;10644;48.834;10.088;2024-01-27T10:20:33;98550.69;;;12.69;48.05
20971;BME280;10644;48.834;10.088;2024-01-27T10:23:10;98559.56;;;12.86;48.06
20971;BME280;10644;48.834;10.088;2024-01-27T10:25:40;98560.94;;;12.70;45.92
20971;BME280;10644;48.834;10.088;2024-01-27T10:28:09;98552.97;;;12.24;45.25
20971;BME280;10644;48.834;10.088;2024-01-27T10:30:35;98554.94;;;12.44;47.21
20971;BME280;10644;48.834;10.088;2024-01-27T10:33:01;98556.41;;;12.77;46.88
20971;BME280;10644;48.834;10.088;2024-01-27T10:35:29;98544.53;;;13.00;46.13
20971;BME280;10644;48.834;10.088;2024-01-27T10:37:57;98534.53;;;12.91;44.65
20971;BME280;10644;48.834;10.088;2024-01-27T10:40:22;98532.81;;;13.16;45.79
20971;BME280;10644;48.834;10.088;2024-01-27T10:43:01;98531.16;;;13.15;44.63
20971;BME280;10644;48.834;10.088;2024-01-27T10:45:33;98521.88;;;13.34;45.28
20971;BME280;10644;48.834;10.088;2024-01-27T10:48:02;98525.16;;;13.62;44.80
20971;BME280;10644;48.834;10.088;2024-01-27T10:50:28;98520.81;;;13.87;44.76
20971;BME280;10644;48.834;10.088;2024-01-27T10:52:57;98528.56;;;14.08;44.32
20971;BME280;10644;48.834;10.088;2024-01-27T10:55:24;98530.75;;;14.19;43.97
20971;BME280;10644;48.834;10.088;2024-01-27T10:57:51;98528.00;;;14.23;42.88
20971;BME280;10644;48.834;10.088;2024-01-27T11:00:17;98531.47;;;14.44;43.13
20971;BME280;10644;48.834;10.088;2024-01-27T11:02:44;98522.41;;;14.55;42.64
20971;BME280;10644;48.834;10.088;2024-01-27T11:05:18;98530.25;;;14.74;42.74
20971;BME280;10644;48.834;10.088;2024-01-27T11:07:45;98524.88;;;14.37;42.33
20971;BME280;10644;48.834;10.088;2024-01-27T11:10:11;98526.50;;;14.61;42.88
20971;BME280;10644;48.834;10.088;2024-01-27T11:12:37;98521.22;;;14.84;42.50
20971;BME280;10644;48.834;10.088;2024-01-27T11:15:03;98520.41;;;15.03;42.46
20971;BME280;10644;48.834;10.088;2024-01-27T11:17:38;98528.34;;;15.19;41.94
20971;BME280;10644;48.834;10.088;2024-01-27T11:20:05;98518.00;;;15.19;39.90
20971;BME280;10644;48.834;10.088;2024-01-27T11:22:30;98526.50;;;14.81;37.77
20971;BME280;10644;48.834;10.088;2024-01-27T11:27:38;98519.81;;;14.12;38.06
20971;BME280;10644;48.834;10.088;2024-01-27T11:30:04;98521.75;;;14.29;39.59
20971;BME280;10644;48.834;10.088;2024-01-27T11:32:33;98515.75;;;14.28;39.86
20971;BME280;10644;48.834;10.088;2024-01-27T11:35:01;98520.91;;;14.50;40.79
20971;BME280;10644;48.834;10.088;2024-01-27T11:37:30;98512.94;;;14.76;39.28
20971;BME280;10644;48.834;10.088;2024-01-27T11:40:05;98510.41;;;14.96;40.06
20971;BME280;10644;48.834;10.088;2024-01-27T11:42:31;98515.63;;;15.14;39.04
20971;BME280;10644;48.834;10.088;2024-01-27T11:44:59;98515.16;;;15.25;38.83
20971;BME280;10644;48.834;10.088;2024-01-27T11:47:25;98501.84;;;15.54;39.57
20971;BME280;10644;48.834;10.088;2024-01-27T11:49:54;98489.91;;;15.70;39.19
20971;BME280;10644;48.834;10.088;2024-01-27T11:52:22;98484.34;;;15.97;39.66
20971;BME280;10644;48.834;10.088;2024-01-27T11:54:57;98486.75;;;16.19;39.45
20971;BME280;10644;48.834;10.088;2024-01-27T11:57:23;98486.78;;;16.36;38.42
20971;BME280;10644;48.834;10.088;2024-01-27T11:59:50;98484.50;;;16.30;37.96
20971;BME280;10644;48.834;10.088;2024-01-27T12:02:15;98483.53;;;16.32;37.64
20971;BME280;10644;48.834;10.088;2024-01-27T12:04:41;98481.19;;;16.45;37.18
20971;BME280;10644;48.834;10.088;2024-01-27T12:07:07;98469.03;;;16.47;36.33
20971;BME280;10644;48.834;10.088;2024-01-27T12:09:32;98464.38;;;16.53;36.14
20971;BME280;10644;48.834;10.088;2024-01-27T12:11:58;98464.50;;;16.69;36.49
20971;BME280;10644;48.834;10.088;2024-01-27T12:14:23;98454.44;;;16.63;33.71
20971;BME280;10644;48.834;10.088;2024-01-27T12:16:48;98443.41;;;16.59;35.35
20971;BME280;10644;48.834;10.088;2024-01-27T12:19:14;98441.66;;;16.60;34.83
20971;BME280;10644;48.834;10.088;2024-01-27T12:21:47;98447.00;;;16.74;36.15
20971;BME280;10644;48.834;10.088;2024-01-27T12:24:16;98439.72;;;16.97;34.99
20971;BME280;10644;48.834;10.088;2024-01-27T12:26:43;98428.78;;;16.75;33.21
20971;BME280;10644;48.834;10.088;2024-01-27T12:29:12;98422.91;;;16.72;33.63
20971;BME280;10644;48.834;10.088;2024-01-27T12:31:37;98422.50;;;16.96;33.74
20971;BME280;10644;48.834;10.088;2024-01-27T12:34:06;98420.88;;;16.61;33.32
20971;BME280;10644;48.834;10.088;2024-01-27T12:36:32;98421.13;;;16.21;33.14
20971;BME280;10644;48.834;10.088;2024-01-27T12:39:02;98428.16;;;16.01;33.40
20971;BME280;10644;48.834;10.088;2024-01-27T12:41:30;98423.25;;;15.21;33.31
20971;BME280;10644;48.834;10.088;2024-01-27T12:43:56;98419.00;;;15.40;34.91
20971;BME280;10644;48.834;10.088;2024-01-27T12:46:21;98410.44;;;15.93;34.76
20971;BME280;10644;48.834;10.088;2024-01-27T12:48:47;98401.91;;;16.44;34.13
20971;BME280;10644;48.834;10.088;2024-01-27T12:51:13;98395.72;;;16.80;33.77
20971;BME280;10644;48.834;10.088;2024-01-27T12:53:42;98401.13;;;16.93;32.96
20971;BME280;10644;48.834;10.088;2024-01-27T12:56:12;98401.69;;;17.15;32.69